To NAV CANADA Home Page Login to a new session Search on AWWS site Disclaimer Vers la page française équivalente Tips FAQ What's new on the site To the Forecasts and Observations / NOTAM section To "File a Flight Plan" website Publications and other links Update of the User's profile FIC Telephone Numbers My Weather Data Folder Route Weather Data Regional Weather Data Local Weather Data To the Forecasts and Observations / NOTAM section
Request Generated 11/13/2018 at 19:02:13 UTC . Weather information available at that time is displayed.

METAR/TAF

LUTSELKE/LUTSELK'E/NT    

METAR CYLK 131800Z 10006KT 060V140 25SM FEW050 OVC087 M15/M20 A3024 RMK SC1AC7 SLP262=
METAR CYLK 131700Z 09007G15KT 050V130 25SM -SN OVC077 M15/M21 A3025 RMK AC8 SLP265=
METAR CYLK 131600Z 09013G20KT 25SM OVC100 M15/M21 A3025 RMK AC8 SLP267=

TAF CYLK 131838Z 1319/1401 10010G20KT P6SM SCT080 OVC100 TEMPO
1319/1401 P6SM -SN SCT050 OVC080
RMK NXT FCST WILL BE ISSUED AT 141645Z=
Your time UTC time
Weather data provided by Environment Canada and NAV CANADA